sensor_id;sensor_type;location;lat;lon;timestamp;pressure;altitude;pressure_sealevel;temperature;humidity
60307;BME280;46155;52.364;6.580;2023-05-23T03:01:53;101510.75;;;13.52;100.00
60307;BME280;46155;52.364;6.580;2023-05-23T03:04:19;101511.41;;;13.48;100.00
60307;BME280;46155;52.364;6.580;2023-05-23T03:06:45;101517.63;;;13.35;100.00
60307;BME280;46155;52.364;6.580;2023-05-23T03:09:13;101519.66;;;13.39;100.00
60307;BME280;46155;52.364;6.580;2023-05-23T03:11:39;101520.13;;;13.62;100.00
60307;BME280;46155;52.364;6.580;2023-05-23T03:14:04;101513.03;;;13.61;100.00
60307;BME280;46155;52.364;6.580;2023-05-23T03:16:30;101525.78;;;13.68;100.00
60307;BME280;46155;52.364;6.580;2023-05-23T03:18:55;101515.38;;;13.56;100.00
60307;BME280;46155;52.364;6.580;2023-05-23T03:21:21;101528.44;;;13.68;100.00
60307;BME280;46155;52.364;6.580;2023-05-23T03:23:46;101524.03;;;13.69;100.00
60307;BME280;46155;52.364;6.580;2023-05-23T03:26:11;101526.41;;;13.64;100.00
60307;BME280;46155;52.364;6.580;2023-05-23T03:28:37;101530.88;;;13.65;100.00
60307;BME280;46155;52.364;6.580;2023-05-23T03:31:02;101526.03;;;13.58;100.00
60307;BME280;46155;52.364;6.580;2023-05-23T03:33:27;101520.56;;;13.40;100.00
60307;BME280;46155;52.364;6.580;2023-05-23T03:35:53;101525.13;;;13.42;100.00
60307;BME280;46155;52.364;6.580;2023-05-23T03:38:18;101524.19;;;13.42;100.00
60307;BME280;46155;52.364;6.580;2023-05-23T03:40:43;101529.63;;;13.30;100.00
60307;BME280;46155;52.364;6.580;2023-05-23T03:43:08;101529.88;;;13.20;100.00
60307;BME280;46155;52.364;6.580;2023-05-23T03:45:34;101533.94;;;13.15;100.00
60307;BME280;46155;52.364;6.580;2023-05-23T03:47:59;101527.03;;;13.17;100.00
60307;BME280;46155;52.364;6.580;2023-05-23T03:50:25;101527.59;;;13.26;100.00
60307;BME280;46155;52.364;6.580;2023-05-23T03:52:51;101525.94;;;13.13;100.00
60307;BME280;46155;52.364;6.580;2023-05-23T03:55:16;101539.75;;;13.24;100.00
60307;BME280;46155;52.364;6.580;2023-05-23T03:57:46;101540.69;;;13.24;100.00
60307;BME280;46155;52.364;6.580;2023-05-23T04:00:12;101543.94;;;13.20;100.00
60307;BME280;46155;52.364;6.580;2023-05-23T04:02:37;101544.31;;;13.12;100.00
60307;BME280;46155;52.364;6.580;2023-05-23T04:05:04;101538.63;;;13.05;100.00
60307;BME280;46155;52.364;6.580;2023-05-23T04:07:30;101541.84;;;13.15;100.00
60307;BME280;46155;52.364;6.580;2023-05-23T04:09:59;101552.81;;;13.07;100.00
60307;BME280;46155;52.364;6.580;2023-05-23T04:12:24;101547.94;;;13.14;100.00
60307;BME280;46155;52.364;6.580;2023-05-23T04:14:49;101552.91;;;13.09;100.00
60307;BME280;46155;52.364;6.580;2023-05-23T04:17:15;101543.63;;;13.01;100.00
60307;BME280;46155;52.364;6.580;2023-05-23T04:19:40;101552.56;;;13.03;100.00
60307;BME280;46155;52.364;6.580;2023-05-23T04:22:05;101542.28;;;13.07;100.00
60307;BME280;46155;52.364;6.580;2023-05-23T04:24:31;101539.28;;;13.01;100.00
60307;BME280;46155;52.364;6.580;2023-05-23T04:26:56;101550.88;;;13.18;100.00
60307;BME280;46155;52.364;6.580;2023-05-23T04:29:23;101561.94;;;13.13;100.00
60307;BME280;46155;52.364;6.580;2023-05-23T04:31:50;101562.84;;;13.13;100.00
60307;BME280;46155;52.364;6.580;2023-05-23T04:34:15;101567.31;;;13.14;100.00
60307;BME280;46155;52.364;6.580;2023-05-23T04:36:41;101571.28;;;13.07;100.00
60307;BME280;46155;52.364;6.580;2023-05-23T04:39:08;101574.47;;;13.17;100.00
60307;BME280;46155;52.364;6.580;2023-05-23T04:41:34;101568.28;;;13.01;100.00
60307;BME280;46155;52.364;6.580;2023-05-23T04:44:01;101574.69;;;12.78;100.00
60307;BME280;46155;52.364;6.580;2023-05-23T04:46:26;101580.66;;;12.89;100.00
60307;BME280;46155;52.364;6.580;2023-05-23T04:48:52;101594.03;;;12.92;100.00
60307;BME280;46155;52.364;6.580;2023-05-23T04:51:18;101599.69;;;12.98;100.00
60307;BME280;46155;52.364;6.580;2023-05-23T04:53:45;101603.16;;;12.97;100.00
60307;BME280;46155;52.364;6.580;2023-05-23T04:56:11;101604.94;;;12.98;100.00
60307;BME280;46155;52.364;6.580;2023-05-23T04:58:36;101603.97;;;12.83;100.00
60307;BME280;46155;52.364;6.580;2023-05-23T05:01:01;101599.94;;;12.74;100.00
60307;BME280;46155;52.364;6.580;2023-05-23T05:03:27;101611.56;;;12.91;100.00
60307;BME280;46155;52.364;6.580;2023-05-23T05:05:52;101616.94;;;12.93;100.00
60307;BME280;46155;52.364;6.580;2023-05-23T05:08:18;101617.56;;;12.89;100.00
60307;BME280;46155;52.364;6.580;2023-05-23T05:10:46;101628.31;;;12.79;100.00
60307;BME280;46155;52.364;6.580;2023-05-23T05:13:11;101635.19;;;12.77;100.00
60307;BME280;46155;52.364;6.580;2023-05-23T05:15:36;101643.91;;;12.75;100.00
60307;BME280;46155;52.364;6.580;2023-05-23T05:18:02;101645.75;;;12.77;100.00
60307;BME280;46155;52.364;6.580;2023-05-23T05:20:27;101645.75;;;12.90;100.00
60307;BME280;46155;52.364;6.580;2023-05-23T05:22:56;101656.59;;;12.68;100.00
60307;BME280;46155;52.364;6.580;2023-05-23T05:25:22;101648.41;;;12.63;100.00
60307;BME280;46155;52.364;6.580;2023-05-23T05:27:48;101664.97;;;12.75;100.00
60307;BME280;46155;52.364;6.580;2023-05-23T05:30:13;101660.84;;;12.79;100.00
60307;BME280;46155;52.364;6.580;2023-05-23T05:32:39;101664.78;;;12.72;100.00
60307;BME280;46155;52.364;6.580;2023-05-23T05:35:04;101668.66;;;12.78;100.00
60307;BME280;46155;52.364;6.580;2023-05-23T05:37:31;101673.59;;;12.86;100.00
60307;BME280;46155;52.364;6.580;2023-05-23T05:39:57;101689.53;;;12.74;100.00
60307;BME280;46155;52.364;6.580;2023-05-23T05:42:23;101691.75;;;12.68;100.00
60307;BME280;46155;52.364;6.580;2023-05-23T05:44:49;101695.22;;;12.67;100.00
60307;BME280;46155;52.364;6.580;2023-05-23T05:47:14;101689.03;;;12.80;100.00
60307;BME280;46155;52.364;6.580;2023-05-23T05:49:40;101682.03;;;12.67;100.00
60307;BME280;46155;52.364;6.580;2023-05-23T05:52:06;101701.47;;;12.69;100.00
60307;BME280;46155;52.364;6.580;2023-05-23T05:54:31;101694.28;;;12.53;100.00
60307;BME280;46155;52.364;6.580;2023-05-23T05:56:57;101689.00;;;12.53;100.00
60307;BME280;46155;52.364;6.580;2023-05-23T05:59:22;101699.84;;;12.58;100.00
60307;BME280;46155;52.364;6.580;2023-05-23T06:01:47;101712.13;;;12.57;100.00
60307;BME280;46155;52.364;6.580;2023-05-23T06:04:15;101690.31;;;12.47;100.00
60307;BME280;46155;52.364;6.580;2023-05-23T06:06:40;101705.38;;;12.36;100.00
60307;BME280;46155;52.364;6.580;2023-05-23T06:09:06;101696.78;;;12.25;100.00
60307;BME280;46155;52.364;6.580;2023-05-23T06:11:31;101718.88;;;12.40;100.00
60307;BME280;46155;52.364;6.580;2023-05-23T06:13:56;101716.19;;;12.27;100.00
60307;BME280;46155;52.364;6.580;2023-05-23T06:16:22;101718.81;;;12.14;100.00
60307;BME280;46155;52.364;6.580;2023-05-23T06:18:47;101710.44;;;11.94;100.00
60307;BME280;46155;52.364;6.580;2023-05-23T06:21:12;101734.59;;;12.14;100.00
60307;BME280;46155;52.364;6.580;2023-05-23T06:23:37;101726.13;;;12.18;100.00
60307;BME280;46155;52.364;6.580;2023-05-23T06:26:03;101729.53;;;12.17;100.00
60307;BME280;46155;52.364;6.580;2023-05-23T06:28:32;101735.91;;;12.20;100.00
60307;BME280;46155;52.364;6.580;2023-05-23T06:30:57;101735.28;;;12.36;100.00
60307;BME280;46155;52.364;6.580;2023-05-23T06:33:22;101742.34;;;12.37;100.00
60307;BME280;46155;52.364;6.580;2023-05-23T06:35:48;101754.09;;;12.29;100.00
60307;BME280;46155;52.364;6.580;2023-05-23T06:38:13;101755.09;;;12.31;100.00
60307;BME280;46155;52.364;6.580;2023-05-23T06:40:38;101755.66;;;12.14;100.00
60307;BME280;46155;52.364;6.580;2023-05-23T06:43:05;101753.13;;;12.15;100.00
60307;BME280;46155;52.364;6.580;2023-05-23T06:45:30;101736.84;;;12.21;100.00
60307;BME280;46155;52.364;6.580;2023-05-23T06:47:55;101751.84;;;12.22;100.00
60307;BME280;46155;52.364;6.580;2023-05-23T06:50:21;101760.28;;;12.04;100.00
60307;BME280;46155;52.364;6.580;2023-05-23T06:52:46;101762.00;;;12.04;100.00
60307;BME280;46155;52.364;6.580;2023-05-23T06:55:11;101767.56;;;12.09;100.00
60307;BME280;46155;52.364;6.580;2023-05-23T06:57:42;101768.75;;;12.00;100.00
60307;BME280;46155;52.364;6.580;2023-05-23T07:00:08;101778.63;;;11.91;100.00
60307;BME280;46155;52.364;6.580;2023-05-23T07:02:34;101772.25;;;11.76;100.00
60307;BME280;46155;52.364;6.580;2023-05-23T07:04:59;101777.50;;;11.76;100.00
60307;BME280;46155;52.364;6.580;2023-05-23T07:07:25;101774.09;;;11.65;100.00
60307;BME280;46155;52.364;6.580;2023-05-23T07:09:50;101786.00;;;11.71;100.00
60307;BME280;46155;52.364;6.580;2023-05-23T07:12:15;101795.13;;;11.77;100.00
60307;BME280;46155;52.364;6.580;2023-05-23T07:14:40;101794.78;;;11.84;100.00
60307;BME280;46155;52.364;6.580;2023-05-23T07:17:06;101800.81;;;11.83;100.00
60307;BME280;46155;52.364;6.580;2023-05-23T07:19:31;101806.31;;;11.86;100.00
60307;BME280;46155;52.364;6.580;2023-05-23T07:21:56;101804.41;;;11.71;100.00
60307;BME280;46155;52.364;6.580;2023-05-23T07:24:22;101814.84;;;11.58;100.00
60307;BME280;46155;52.364;6.580;2023-05-23T07:26:47;101817.13;;;11.53;100.00
60307;BME280;46155;52.364;6.580;2023-05-23T07:29:13;101809.22;;;11.53;100.00
60307;BME280;46155;52.364;6.580;2023-05-23T07:31:38;101813.94;;;11.46;100.00
60307;BME280;46155;52.364;6.580;2023-05-23T07:34:03;101821.38;;;11.40;100.00
60307;BME280;46155;52.364;6.580;2023-05-23T07:36:28;101818.72;;;11.40;100.00
60307;BME280;46155;52.364;6.580;2023-05-23T07:38:57;101817.47;;;11.46;100.00
60307;BME280;46155;52.364;6.580;2023-05-23T07:41:23;101819.41;;;11.61;100.00
60307;BME280;46155;52.364;6.580;2023-05-23T07:43:48;101816.19;;;11.77;100.00
60307;BME280;46155;52.364;6.580;2023-05-23T07:46:13;101811.19;;;11.93;100.00
60307;BME280;46155;52.364;6.580;2023-05-23T07:48:39;101823.00;;;11.98;100.00
60307;BME280;46155;52.364;6.580;2023-05-23T07:51:04;101818.38;;;12.08;100.00
60307;BME280;46155;52.364;6.580;2023-05-23T07:53:30;101828.69;;;12.04;100.00
60307;BME280;46155;52.364;6.580;2023-05-23T07:55:55;101826.78;;;11.90;100.00
60307;BME280;46155;52.364;6.580;2023-05-23T07:58:20;101818.66;;;11.99;100.00
60307;BME280;46155;52.364;6.580;2023-05-23T08:00:47;101831.22;;;12.03;100.00
60307;BME280;46155;52.364;6.580;2023-05-23T08:03:13;101817.97;;;12.01;100.00
60307;BME280;46155;52.364;6.580;2023-05-23T08:05:38;101821.84;;;12.07;100.00
60307;BME280;46155;52.364;6.580;2023-05-23T08:08:03;101819.78;;;12.02;100.00
60307;BME280;46155;52.364;6.580;2023-05-23T08:10:29;101834.16;;;12.08;100.00
60307;BME280;46155;52.364;6.580;2023-05-23T08:12:54;101837.25;;;12.14;100.00
60307;BME280;46155;52.364;6.580;2023-05-23T08:15:19;101834.63;;;12.14;100.00
60307;BME280;46155;52.364;6.580;2023-05-23T08:17:47;101852.50;;;12.06;100.00
60307;BME280;46155;52.364;6.580;2023-05-23T08:20:12;101849.06;;;12.07;100.00
60307;BME280;46155;52.364;6.580;2023-05-23T08:22:38;101844.22;;;12.13;100.00
60307;BME280;46155;52.364;6.580;2023-05-23T08:25:04;101852.78;;;12.22;100.00
60307;BME280;46155;52.364;6.580;2023-05-23T08:27:30;101854.28;;;12.19;98.81
60307;BME280;46155;52.364;6.580;2023-05-23T08:29:55;101854.66;;;12.37;97.28
60307;BME280;46155;52.364;6.580;2023-05-23T08:32:21;101853.00;;;12.51;96.63
60307;BME280;46155;52.364;6.580;2023-05-23T08:34:46;101859.84;;;12.61;95.72
60307;BME280;46155;52.364;6.580;2023-05-23T08:37:11;101852.88;;;12.74;96.26
60307;BME280;46155;52.364;6.580;2023-05-23T08:39:37;101863.44;;;12.74;93.25
60307;BME280;46155;52.364;6.580;2023-05-23T08:42:02;101874.59;;;12.58;94.56
60307;BME280;46155;52.364;6.580;2023-05-23T08:44:28;101876.69;;;12.26;96.31
60307;BME280;46155;52.364;6.580;2023-05-23T08:46:53;101884.19;;;12.08;97.59
60307;BME280;46155;52.364;6.580;2023-05-23T08:49:19;101873.44;;;12.04;98.35
60307;BME280;46155;52.364;6.580;2023-05-23T08:51:46;101878.91;;;12.08;99.92
60307;BME280;46155;52.364;6.580;2023-05-23T08:54:14;101870.13;;;12.07;97.01
60307;BME280;46155;52.364;6.580;2023-05-23T08:56:42;101881.53;;;12.19;97.19
60307;BME280;46155;52.364;6.580;2023-05-23T08:59:08;101869.56;;;12.36;98.74
60307;BME280;46155;52.364;6.580;2023-05-23T09:01:34;101874.50;;;12.57;96.26
60307;BME280;46155;52.364;6.580;2023-05-23T09:04:00;101882.13;;;12.66;91.15
60307;BME280;46155;52.364;6.580;2023-05-23T09:06:29;101885.09;;;12.70;91.03
60307;BME280;46155;52.364;6.580;2023-05-23T09:08:56;101888.63;;;12.71;90.52
60307;BME280;46155;52.364;6.580;2023-05-23T09:11:22;101891.38;;;12.72;91.16
60307;BME280;46155;52.364;6.580;2023-05-23T09:13:48;101892.91;;;12.69;89.79
60307;BME280;46155;52.364;6.580;2023-05-23T09:16:15;101904.84;;;12.77;90.99
60307;BME280;46155;52.364;6.580;2023-05-23T09:18:43;101896.59;;;12.84;97.02
60307;BME280;46155;52.364;6.580;2023-05-23T09:21:09;101905.19;;;12.82;91.38
60307;BME280;46155;52.364;6.580;2023-05-23T09:23:36;101902.56;;;12.82;92.20
60307;BME280;46155;52.364;6.580;2023-05-23T09:26:11;101914.09;;;12.70;90.80
60307;BME280;46155;52.364;6.580;2023-05-23T09:28:41;101904.94;;;12.65;90.39
60307;BME280;46155;52.364;6.580;2023-05-23T09:31:08;101906.41;;;12.87;90.36
60307;BME280;46155;52.364;6.580;2023-05-23T09:33:48;101916.91;;;12.99;87.49
60307;BME280;46155;52.364;6.580;2023-05-23T09:36:14;101914.19;;;13.11;86.35
60307;BME280;46155;52.364;6.580;2023-05-23T09:38:44;101912.00;;;13.30;85.73
60307;BME280;46155;52.364;6.580;2023-05-23T09:41:11;101917.72;;;13.50;81.80
60307;BME280;46155;52.364;6.580;2023-05-23T09:43:57;101915.06;;;13.36;81.42
60307;BME280;46155;52.364;6.580;2023-05-23T09:46:27;101920.50;;;13.26;80.88
60307;BME280;46155;52.364;6.580;2023-05-23T09:48:52;101920.09;;;13.20;80.54
60307;BME280;46155;52.364;6.580;2023-05-23T09:51:20;101910.63;;;13.49;84.58
60307;BME280;46155;52.364;6.580;2023-05-23T09:53:46;101918.63;;;13.77;81.42
60307;BME280;46155;52.364;6.580;2023-05-23T09:56:12;101916.38;;;13.97;78.32
60307;BME280;46155;52.364;6.580;2023-05-23T09:58:43;101920.13;;;14.00;77.47
60307;BME280;46155;52.364;6.580;2023-05-23T10:01:10;101917.38;;;14.12;77.39
60307;BME280;46155;52.364;6.580;2023-05-23T10:03:43;101918.97;;;14.23;77.56
60307;BME280;46155;52.364;6.580;2023-05-23T10:06:16;101926.56;;;14.32;76.43
60307;BME280;46155;52.364;6.580;2023-05-23T10:08:53;101916.25;;;14.50;76.09
60307;BME280;46155;52.364;6.580;2023-05-23T10:14:28;101913.81;;;14.82;73.65
60307;BME280;46155;52.364;6.580;2023-05-23T10:16:59;101927.03;;;14.82;72.75
60307;BME280;46155;52.364;6.580;2023-05-23T10:19:34;101912.16;;;14.84;71.91
60307;BME280;46155;52.364;6.580;2023-05-23T10:22:06;101921.66;;;14.95;73.55
60307;BME280;46155;52.364;6.580;2023-05-23T10:24:33;101926.41;;;14.86;71.26
60307;BME280;46155;52.364;6.580;2023-05-23T10:27:00;101919.63;;;14.91;70.71
60307;BME280;46155;52.364;6.580;2023-05-23T10:29:26;101916.16;;;14.77;69.29
60307;BME280;46155;52.364;6.580;2023-05-23T10:31:52;101930.31;;;14.77;69.44
60307;BME280;46155;52.364;6.580;2023-05-23T10:34:31;101931.66;;;14.71;73.37
60307;BME280;46155;52.364;6.580;2023-05-23T10:37:05;101928.81;;;14.83;72.84
60307;BME280;46155;52.364;6.580;2023-05-23T10:39:36;101928.38;;;14.90;72.42
60307;BME280;46155;52.364;6.580;2023-05-23T10:42:16;101936.31;;;14.61;70.78
60307;BME280;46155;52.364;6.580;2023-05-23T10:44:41;101925.47;;;14.57;70.18
60307;BME280;46155;52.364;6.580;2023-05-23T10:47:07;101921.50;;;14.63;69.70
60307;BME280;46155;52.364;6.580;2023-05-23T10:49:46;101919.94;;;14.67;68.22
60307;BME280;46155;52.364;6.580;2023-05-23T10:52:16;101921.16;;;14.72;68.24
60307;BME280;46155;52.364;6.580;2023-05-23T10:54:49;101937.44;;;14.93;67.49
60307;BME280;46155;52.364;6.580;2023-05-23T10:57:16;101928.19;;;14.72;67.47
60307;BME280;46155;52.364;6.580;2023-05-23T10:59:44;101927.03;;;14.82;68.80
60307;BME280;46155;52.364;6.580;2023-05-23T11:02:17;101940.38;;;14.70;68.21
60307;BME280;46155;52.364;6.580;2023-05-23T11:04:43;101927.19;;;14.56;67.76
60307;BME280;46155;52.364;6.580;2023-05-23T11:07:28;101934.63;;;14.62;68.43
60307;BME280;46155;52.364;6.580;2023-05-23T11:10:11;101938.13;;;14.34;69.19
60307;BME280;46155;52.364;6.580;2023-05-23T11:12:42;101936.09;;;14.43;71.79
60307;BME280;46155;52.364;6.580;2023-05-23T11:17:51;101933.66;;;14.61;69.54
60307;BME280;46155;52.364;6.580;2023-05-23T11:20:17;101949.53;;;14.75;67.61
60307;BME280;46155;52.364;6.580;2023-05-23T11:23:07;101940.00;;;14.63;66.54
60307;BME280;46155;52.364;6.580;2023-05-23T11:25:51;101942.41;;;14.74;67.47
60307;BME280;46155;52.364;6.580;2023-05-23T11:28:18;101939.84;;;14.75;67.12
60307;BME280;46155;52.364;6.580;2023-05-23T11:30:46;101938.13;;;14.76;70.13
60307;BME280;46155;52.364;6.580;2023-05-23T11:33:14;101941.69;;;14.76;68.80
60307;BME280;46155;52.364;6.580;2023-05-23T11:35:41;101934.13;;;14.83;68.35
60307;BME280;46155;52.364;6.580;2023-05-23T11:38:07;101936.22;;;14.73;67.12
60307;BME280;46155;52.364;6.580;2023-05-23T11:40:37;101945.00;;;14.87;67.64
60307;BME280;46155;52.364;6.580;2023-05-23T11:43:08;101953.94;;;14.89;64.05
60307;BME280;46155;52.364;6.580;2023-05-23T11:45:34;101957.47;;;14.90;64.68
60307;BME280;46155;52.364;6.580;2023-05-23T11:48:14;101953.47;;;14.82;64.14
60307;BME280;46155;52.364;6.580;2023-05-23T11:50:51;101946.25;;;14.94;63.58
60307;BME280;46155;52.364;6.580;2023-05-23T11:53:18;101945.59;;;15.11;63.38
60307;BME280;46155;52.364;6.580;2023-05-23T11:55:50;101948.53;;;15.31;64.14
60307;BME280;46155;52.364;6.580;2023-05-23T11:58:17;101952.31;;;15.36;63.72
60307;BME280;46155;52.364;6.580;2023-05-23T12:00:44;101954.91;;;15.20;63.05
60307;BME280;46155;52.364;6.580;2023-05-23T12:03:09;101951.38;;;14.91;63.75
60307;BME280;46155;52.364;6.580;2023-05-23T12:05:35;101953.75;;;15.01;66.37
60307;BME280;46155;52.364;6.580;2023-05-23T12:08:01;101948.41;;;15.14;65.92
60307;BME280;46155;52.364;6.580;2023-05-23T12:10:26;101950.25;;;15.15;63.90
60307;BME280;46155;52.364;6.580;2023-05-23T12:12:52;101959.41;;;14.92;63.44
60307;BME280;46155;52.364;6.580;2023-05-23T12:15:17;101956.81;;;14.79;64.49
60307;BME280;46155;52.364;6.580;2023-05-23T12:17:43;101955.72;;;14.75;65.77
60307;BME280;46155;52.364;6.580;2023-05-23T12:20:12;101960.69;;;14.99;65.73
60307;BME280;46155;52.364;6.580;2023-05-23T12:22:37;101956.44;;;15.16;64.23
60307;BME280;46155;52.364;6.580;2023-05-23T12:25:07;101959.34;;;15.21;63.45
60307;BME280;46155;52.364;6.580;2023-05-23T12:27:34;101946.13;;;15.21;63.70
60307;BME280;46155;52.364;6.580;2023-05-23T12:30:09;101960.91;;;15.17;62.02
60307;BME280;46155;52.364;6.580;2023-05-23T12:32:42;101965.09;;;15.13;61.35
60307;BME280;46155;52.364;6.580;2023-05-23T12:35:12;101969.75;;;15.03;61.73
60307;BME280;46155;52.364;6.580;2023-05-23T12:37:43;101967.81;;;15.00;59.46
60307;BME280;46155;52.364;6.580;2023-05-23T12:40:14;101972.97;;;14.84;59.55
60307;BME280;46155;52.364;6.580;2023-05-23T12:42:49;101969.94;;;14.77;60.73
60307;BME280;46155;52.364;6.580;2023-05-23T12:45:16;101965.34;;;15.03;62.21
60307;BME280;46155;52.364;6.580;2023-05-23T12:47:41;101978.00;;;14.94;61.99
60307;BME280;46155;52.364;6.580;2023-05-23T12:50:06;101975.06;;;14.89;63.28
60307;BME280;46155;52.364;6.580;2023-05-23T12:52:32;101972.03;;;15.11;64.53
60307;BME280;46155;52.364;6.580;2023-05-23T12:54:57;101979.16;;;15.27;62.59
60307;BME280;46155;52.364;6.580;2023-05-23T12:57:22;101984.44;;;15.27;61.33
60307;BME280;46155;52.364;6.580;2023-05-23T12:59:48;101962.75;;;15.33;61.35
60307;BME280;46155;52.364;6.580;2023-05-23T13:02:13;101970.31;;;15.42;62.90
60307;BME280;46155;52.364;6.580;2023-05-23T13:04:38;101980.06;;;15.28;60.43
60307;BME280;46155;52.364;6.580;2023-05-23T13:07:04;101974.94;;;15.16;61.22
60307;BME280;46155;52.364;6.580;2023-05-23T13:09:29;101975.47;;;15.10;61.40
60307;BME280;46155;52.364;6.580;2023-05-23T13:11:54;101972.03;;;15.26;63.38
60307;BME280;46155;52.364;6.580;2023-05-23T13:14:19;101976.31;;;15.24;60.06
60307;BME280;46155;52.364;6.580;2023-05-23T13:16:45;101976.28;;;15.09;59.70
60307;BME280;46155;52.364;6.580;2023-05-23T13:19:10;101976.38;;;14.96;60.95
60307;BME280;46155;52.364;6.580;2023-05-23T13:21:36;101991.00;;;15.04;62.90
60307;BME280;46155;52.364;6.580;2023-05-23T13:24:01;101992.78;;;15.05;63.36
60307;BME280;46155;52.364;6.580;2023-05-23T13:26:26;101991.88;;;15.05;64.30
60307;BME280;46155;52.364;6.580;2023-05-23T13:28:52;101994.19;;;15.13;61.40
60307;BME280;46155;52.364;6.580;2023-05-23T13:31:17;101996.47;;;15.07;60.35
60307;BME280;46155;52.364;6.580;2023-05-23T13:33:43;101983.28;;;14.94;60.93
60307;BME280;46155;52.364;6.580;2023-05-23T13:36:08;102000.53;;;15.02;62.40
60307;BME280;46155;52.364;6.580;2023-05-23T13:38:33;102000.22;;;14.83;62.16
60307;BME280;46155;52.364;6.580;2023-05-23T13:40:58;102005.72;;;14.86;62.88
60307;BME280;46155;52.364;6.580;2023-05-23T13:43:24;102005.81;;;14.87;60.69
60307;BME280;46155;52.364;6.580;2023-05-23T13:45:49;102003.72;;;14.68;60.90
60307;BME280;46155;52.364;6.580;2023-05-23T13:48:14;101999.47;;;14.70;61.60
60307;BME280;46155;52.364;6.580;2023-05-23T13:50:41;102009.22;;;14.58;62.99
60307;BME280;46155;52.364;6.580;2023-05-23T13:53:06;102001.38;;;14.59;64.13
60307;BME280;46155;52.364;6.580;2023-05-23T13:55:38;102001.84;;;14.80;64.53
60307;BME280;46155;52.364;6.580;2023-05-23T13:58:04;101994.34;;;15.02;62.83
60307;BME280;46155;52.364;6.580;2023-05-23T14:00:29;101990.56;;;14.83;62.53
60307;BME280;46155;52.364;6.580;2023-05-23T14:02:54;101993.16;;;14.55;61.34
60307;BME280;46155;52.364;6.580;2023-05-23T14:05:20;101997.63;;;14.56;62.02
60307;BME280;46155;52.364;6.580;2023-05-23T14:07:45;102001.25;;;14.71;61.33
60307;BME280;46155;52.364;6.580;2023-05-23T14:10:11;101999.25;;;14.67;61.16
60307;BME280;46155;52.364;6.580;2023-05-23T14:12:38;101996.72;;;14.69;60.78
60307;BME280;46155;52.364;6.580;2023-05-23T14:15:03;102010.16;;;14.87;61.22
60307;BME280;46155;52.364;6.580;2023-05-23T14:17:29;102002.22;;;14.87;60.08
60307;BME280;46155;52.364;6.580;2023-05-23T14:19:54;101998.19;;;14.78;61.14
60307;BME280;46155;52.364;6.580;2023-05-23T14:22:20;101991.66;;;14.87;60.56
60307;BME280;46155;52.364;6.580;2023-05-23T14:24:45;101996.50;;;14.94;59.46
60307;BME280;46155;52.364;6.580;2023-05-23T14:27:10;101997.09;;;15.03;58.38
60307;BME280;46155;52.364;6.580;2023-05-23T14:29:36;101997.75;;;15.14;57.79
60307;BME280;46155;52.364;6.580;2023-05-23T14:32:01;102004.31;;;15.21;58.50
60307;BME280;46155;52.364;6.580;2023-05-23T14:34:28;102005.44;;;15.24;58.99
60307;BME280;46155;52.364;6.580;2023-05-23T14:36:53;102005.97;;;15.19;57.76
60307;BME280;46155;52.364;6.580;2023-05-23T14:39:19;102005.34;;;15.23;57.84
60307;BME280;46155;52.364;6.580;2023-05-23T14:41:44;102001.22;;;15.13;54.84
60307;BME280;46155;52.364;6.580;2023-05-23T14:44:11;101998.66;;;15.14;56.34
60307;BME280;46155;52.364;6.580;2023-05-23T14:46:36;101998.75;;;15.16;56.15
60307;BME280;46155;52.364;6.580;2023-05-23T14:49:01;101995.38;;;15.19;56.78
60307;BME280;46155;52.364;6.580;2023-05-23T14:51:27;101997.28;;;15.06;57.59
60307;BME280;46155;52.364;6.580;2023-05-23T14:53:52;101986.69;;;15.06;56.51
60307;BME280;46155;52.364;6.580;2023-05-23T14:56:17;101994.63;;;15.06;55.89
60307;BME280;46155;52.364;6.580;2023-05-23T14:58:43;101990.06;;;15.04;56.88
60307;BME280;46155;52.364;6.580;2023-05-23T15:01:11;101994.28;;;15.15;59.23
60307;BME280;46155;52.364;6.580;2023-05-23T15:03:37;102000.59;;;15.17;58.12
60307;BME280;46155;52.364;6.580;2023-05-23T15:06:02;102011.56;;;14.95;58.38
60307;BME280;46155;52.364;6.580;2023-05-23T15:08:29;102005.38;;;15.09;61.74
60307;BME280;46155;52.364;6.580;2023-05-23T15:10:56;102009.59;;;15.06;59.69
60307;BME280;46155;52.364;6.580;2023-05-23T15:13:21;102009.16;;;14.85;58.82
60307;BME280;46155;52.364;6.580;2023-05-23T15:15:46;102014.09;;;14.93;58.62
60307;BME280;46155;52.364;6.580;2023-05-23T15:18:13;102003.38;;;15.05;58.68
60307;BME280;46155;52.364;6.580;2023-05-23T15:20:38;102003.59;;;15.08;59.22
60307;BME280;46155;52.364;6.580;2023-05-23T15:23:04;102007.28;;;14.97;58.52
60307;BME280;46155;52.364;6.580;2023-05-23T15:25:29;102019.50;;;14.95;59.32
60307;BME280;46155;52.364;6.580;2023-05-23T15:27:55;102002.50;;;15.20;62.64
60307;BME280;46155;52.364;6.580;2023-05-23T15:30:21;102008.63;;;15.19;57.06
60307;BME280;46155;52.364;6.580;2023-05-23T15:32:46;101999.91;;;15.06;56.22
60307;BME280;46155;52.364;6.580;2023-05-23T15:35:11;102025.41;;;14.91;54.54
60307;BME280;46155;52.364;6.580;2023-05-23T15:37:37;102010.41;;;14.76;56.82
60307;BME280;46155;52.364;6.580;2023-05-23T15:40:03;102006.88;;;14.62;58.44
60307;BME280;46155;52.364;6.580;2023-05-23T15:42:29;102022.22;;;14.68;59.49
60307;BME280;46155;52.364;6.580;2023-05-23T15:44:54;102023.88;;;14.66;58.37
60307;BME280;46155;52.364;6.580;2023-05-23T15:47:20;102018.59;;;14.66;58.04
60307;BME280;46155;52.364;6.580;2023-05-23T15:49:46;102012.38;;;14.66;56.98